Fort Nelson, British Columbia

3:12 AM PDT on July 23, 2016 (GMT -0700)
Fort Nelson | | Change Station

Elev 1253 ft 58.84 °N, 122.60 °W | Updated 12 minutes ago

Overcast
Overcast
57 °F
Feels Like 57 °F
N
4
Wind Variable Wind from South

Today
High -- | Low -- °F
--% Chance of Precip.
Yesterday
High -- | Low -- °F
Precip. -- in
Pressure 29.78 in
Visibility 15.0 miles
Clouds Scattered Clouds 3200 ft
Mostly Cloudy 7800 ft
Mostly Cloudy 11000 ft
Overcast 22000 ft
Dew Point 55 °F
Humidity 94%
Rainfall 0.00 in
Snow Depth Not available.
4:40 AM 9:51 PM
Waning Gibbous, 86% visible
METAR CYYE 231000Z 18003KT 15SM SCT032 BKN078 BKN110 OVC220 14/13 A2975 RMK SC3AC2AC2CI1 CVCTV CLD EMBD SLP083 DENSITY ALT 1500FT
Pressure 29.78 in
Visibility 15.0 miles
Clouds Scattered Clouds 3200 ft
Mostly Cloudy 7800 ft
Mostly Cloudy 11000 ft
Overcast 22000 ft
Dew Point 55 °F
Humidity 94%
Rainfall 0.00 in
Snow Depth Not available.
4:40 AM 9:51 PM
Waning Gibbous, 86% visible
METAR CYYE 231000Z 18003KT 15SM SCT032 BKN078 BKN110 OVC220 14/13 A2975 RMK SC3AC2AC2CI1 CVCTV CLD EMBD SLP083 DENSITY ALT 1500FT

10-Day Weather Forecast

No radar image for this location.
×

Almanac

Astronomy

Jul. 23, 2016 Rise Set
Actual Time
Civil Twilight
Nautical Twilight
Astronomical Twilight
Moon
Length of Visible Light
Length of Day
Tomorrow will be .
, % of the Moon is Illuminated

Today's Extremes

Country Highs Country Lows

Community

WunderPhotos

Upload Photos

1,926,789 photos uploaded!

WunderBlog® & News

Nearby

Air Quality

  Air Quality AQ Index Pollutant
Not available.

Snow Depth

Station Depth Elevation

Earthquake Activity

City Distance Mag. Time & Date
Minimum magnitude displayed is 2.5.

Coastal Water Temperatures

Place Temperature

Stations

Nearby Weather Stations

Station Location Temp. Windchill Dew Point Humidity Wind Precip. Elev Updated Type
                   

Watches & Warnings

There are currently no watches in effect.